Time;durP1;ratioP1;P1;durP2;ratioP2;P2;SDS_P1;SDS_P2;PMS_P1;PMS_P2;Temp;Humidity;BMP_temperature;BMP_pressure;BME280_temperature;BME280_humidity;BME280_pressure;Samples;Min_cycle;Max_cycle;Signal;HPM_P1;HPM_P2
2022/08/07 00:00:28;;;;;;;;;;;22.20;50.10;;;;;;482508;247;1248;-51
2022/08/07 00:02:29;;;;;;;;;;;22.20;50.20;;;;;;482211;247;1137;-50
2022/08/07 00:04:30;;;;;;;;;;;22.20;50.30;;;;;;482132;247;1162;-50
2022/08/07 00:06:32;;;;;;;;;;;22.20;50.30;;;;;;482299;247;2201;-50
2022/08/07 00:08:35;;;;;;;;;;;22.20;50.30;;;;;;481942;247;1296;-50
2022/08/07 00:10:35;;;;;;;;;;;22.20;50.30;;;;;;482160;247;2191;-51
2022/08/07 00:12:36;;;;;;;;;;;22.20;50.20;;;;;;482514;247;1335;-51
2022/08/07 00:14:40;;;;;;;;;;;22.20;50.20;;;;;;482486;247;1200;-51
2022/08/07 00:16:42;;;;;;;;;;;22.20;50.20;;;;;;482248;246;1324;-50
2022/08/07 00:18:43;;;;;;;;;;;22.20;50.10;;;;;;482594;247;1482;-50
2022/08/07 00:20:44;;;;;;;;;;;22.20;50.10;;;;;;482293;247;1238;-51
2022/08/07 00:22:46;;;;;;;;;;;22.20;50.10;;;;;;482477;247;1224;-50
2022/08/07 00:24:47;;;;;;;;;;;22.20;50.00;;;;;;482231;247;1479;-51
2022/08/07 00:26:49;;;;;;;;;;;22.20;50.00;;;;;;482132;247;2208;-51
2022/08/07 00:28:49;;;;;;;;;;;22.20;50.10;;;;;;482583;247;1507;-51
2022/08/07 00:30:51;;;;;;;;;;;22.30;50.10;;;;;;482141;247;1261;-51
2022/08/07 00:32:52;;;;;;;;;;;22.20;50.10;;;;;;482584;246;1240;-51
2022/08/07 00:34:53;;;;;;;;;;;22.20;50.10;;;;;;482220;247;1464;-51
2022/08/07 00:36:55;;;;;;;;;;;22.30;50.10;;;;;;482328;247;1272;-50
2022/08/07 00:38:56;;;;;;;;;;;22.20;50.00;;;;;;482171;247;1192;-51
2022/08/07 00:40:57;;;;;;;;;;;22.20;50.10;;;;;;482154;247;1329;-51
2022/08/07 00:42:59;;;;;;;;;;;22.20;50.10;;;;;;482610;247;1140;-51
2022/08/07 00:45:00;;;;;;;;;;;22.20;50.10;;;;;;482267;247;1155;-51
2022/08/07 00:47:01;;;;;;;;;;;22.30;50.10;;;;;;482209;247;2188;-51
2022/08/07 00:49:03;;;;;;;;;;;22.20;50.00;;;;;;482300;247;1074;-50
2022/08/07 00:51:04;;;;;;;;;;;22.30;50.00;;;;;;482156;247;1146;-51
2022/08/07 00:53:05;;;;;;;;;;;22.20;50.00;;;;;;482373;247;1190;-51
2022/08/07 00:55:07;;;;;;;;;;;22.30;50.00;;;;;;482134;247;1073;-50
2022/08/07 00:57:09;;;;;;;;;;;22.30;50.00;;;;;;482106;247;1196;-51
2022/08/07 00:59:09;;;;;;;;;;;22.30;50.00;;;;;;481982;247;2299;-50
2022/08/07 01:01:11;;;;;;;;;;;22.30;50.00;;;;;;482543;247;1237;-51
2022/08/07 01:03:12;;;;;;;;;;;22.30;50.00;;;;;;482600;247;1068;-51
2022/08/07 01:05:15;;;;;;;;;;;22.30;50.00;;;;;;482465;247;1077;-50
2022/08/07 01:07:15;;;;;;;;;;;22.30;50.10;;;;;;482567;247;2185;-51
2022/08/07 01:09:16;;;;;;;;;;;22.30;50.10;;;;;;482638;247;1081;-50
2022/08/07 01:11:17;;;;;;;;;;;22.20;50.00;;;;;;482289;247;1295;-50
2022/08/07 01:13:20;;;;;;;;;;;22.20;50.00;;;;;;481978;247;1077;-50
2022/08/07 01:15:20;;;;;;;;;;;22.20;50.10;;;;;;482180;247;2366;-51
2022/08/07 01:17:21;;;;;;;;;;;22.30;50.10;;;;;;482210;247;1286;-51
2022/08/07 01:19:23;;;;;;;;;;;22.20;50.10;;;;;;482411;247;1312;-50
2022/08/07 01:21:25;;;;;;;;;;;22.20;50.10;;;;;;482585;247;1288;-51
2022/08/07 01:23:25;;;;;;;;;;;22.20;50.10;;;;;;482207;247;2041;-50
2022/08/07 01:25:27;;;;;;;;;;;22.20;50.20;;;;;;482417;247;1180;-50
2022/08/07 01:27:28;;;;;;;;;;;22.20;50.20;;;;;;482213;247;2144;-51
2022/08/07 01:29:29;;;;;;;;;;;22.20;50.20;;;;;;482624;247;1278;-51
2022/08/07 01:31:31;;;;;;;;;;;22.20;50.20;;;;;;482047;247;1272;-52
2022/08/07 01:33:32;;;;;;;;;;;22.20;50.20;;;;;;482517;246;1235;-50
2022/08/07 01:35:33;;;;;;;;;;;22.20;50.30;;;;;;482306;247;1275;-50
2022/08/07 01:37:35;;;;;;;;;;;22.20;50.20;;;;;;482326;247;1174;-50
2022/08/07 01:39:36;;;;;;;;;;;22.20;50.20;;;;;;482573;247;1247;-50
2022/08/07 01:41:38;;;;;;;;;;;22.20;50.20;;;;;;478997;246;1233;-51
2022/08/07 01:43:39;;;;;;;;;;;22.20;50.30;;;;;;471535;252;1236;-50
2022/08/07 01:45:41;;;;;;;;;;;22.20;50.20;;;;;;470943;251;1344;-51
2022/08/07 01:47:42;;;;;;;;;;;22.20;50.20;;;;;;470970;251;2144;-51
2022/08/07 01:49:43;;;;;;;;;;;22.20;50.20;;;;;;480340;247;1172;-51
2022/08/07 01:51:45;;;;;;;;;;;22.20;50.20;;;;;;482318;247;1209;-50
2022/08/07 01:53:46;;;;;;;;;;;22.20;50.30;;;;;;482146;247;1158;-51
2022/08/07 01:55:47;;;;;;;;;;;22.20;50.20;;;;;;482280;247;1176;-51
2022/08/07 01:57:49;;;;;;;;;;;22.20;50.20;;;;;;482157;247;1247;-50
2022/08/07 01:59:50;;;;;;;;;;;22.20;50.30;;;;;;482561;247;1082;-51
2022/08/07 02:01:51;;;;;;;;;;;22.20;50.30;;;;;;482543;247;1057;-51
2022/08/07 02:03:53;;;;;;;;;;;22.10;50.20;;;;;;482441;246;1017;-50
2022/08/07 02:05:54;;;;;;;;;;;22.20;50.30;;;;;;482143;247;1120;-50
2022/08/07 02:07:55;;;;;;;;;;;22.20;50.30;;;;;;482286;247;2134;-50
2022/08/07 02:09:57;;;;;;;;;;;22.20;50.20;;;;;;482545;247;1039;-51
2022/08/07 02:11:58;;;;;;;;;;;22.20;50.20;;;;;;479008;247;1297;-50
2022/08/07 02:14:00;;;;;;;;;;;22.20;50.20;;;;;;471112;252;1029;-51
2022/08/07 02:16:01;;;;;;;;;;;22.20;50.20;;;;;;474589;247;1036;-50
2022/08/07 02:18:02;;;;;;;;;;;22.20;50.30;;;;;;482170;247;1033;-50
2022/08/07 02:20:04;;;;;;;;;;;22.20;50.30;;;;;;482172;247;1047;-51
2022/08/07 02:22:05;;;;;;;;;;;22.10;50.30;;;;;;482580;247;1106;-51
2022/08/07 02:24:06;;;;;;;;;;;22.20;50.30;;;;;;482200;247;1050;-51
2022/08/07 02:26:08;;;;;;;;;;;22.20;50.30;;;;;;482205;247;1102;-51
2022/08/07 02:28:09;;;;;;;;;;;22.20;50.30;;;;;;482048;247;2196;-50
2022/08/07 02:30:11;;;;;;;;;;;22.20;50.20;;;;;;482146;247;1201;-51
2022/08/07 02:32:12;;;;;;;;;;;22.20;50.30;;;;;;482110;247;1166;-51
2022/08/07 02:34:13;;;;;;;;;;;22.20;50.30;;;;;;482196;247;1246;-51
2022/08/07 02:36:15;;;;;;;;;;;22.20;50.30;;;;;;482023;247;1170;-50
2022/08/07 02:38:16;;;;;;;;;;;22.20;50.30;;;;;;482467;247;1183;-51
2022/08/07 02:40:17;;;;;;;;;;;22.10;50.30;;;;;;482589;247;1311;-50
2022/08/07 02:42:19;;;;;;;;;;;22.10;50.30;;;;;;482371;247;1294;-51
2022/08/07 02:44:20;;;;;;;;;;;22.10;50.30;;;;;;482376;247;1474;-50
2022/08/07 02:46:21;;;;;;;;;;;22.00;50.40;;;;;;482420;247;1104;-51
2022/08/07 02:48:24;;;;;;;;;;;22.00;50.60;;;;;;482410;247;2114;-51
2022/08/07 02:50:24;;;;;;;;;;;22.00;50.80;;;;;;482179;247;1850;-50
2022/08/07 02:52:25;;;;;;;;;;;22.00;50.90;;;;;;482142;247;1226;-50
2022/08/07 02:54:27;;;;;;;;;;;21.90;50.90;;;;;;482592;247;1204;-51
2022/08/07 02:56:28;;;;;;;;;;;21.90;50.90;;;;;;482372;247;1213;-50
2022/08/07 02:58:29;;;;;;;;;;;21.90;51.00;;;;;;482229;247;1273;-51
2022/08/07 03:00:31;;;;;;;;;;;21.90;51.00;;;;;;482196;247;1235;-50
2022/08/07 03:02:32;;;;;;;;;;;21.90;51.00;;;;;;482569;247;1295;-50
2022/08/07 03:04:33;;;;;;;;;;;21.90;51.20;;;;;;482174;247;1393;-51
2022/08/07 03:06:35;;;;;;;;;;;21.90;51.20;;;;;;482352;247;1181;-50
2022/08/07 03:08:36;;;;;;;;;;;21.90;51.20;;;;;;482151;247;2205;-51
2022/08/07 03:10:37;;;;;;;;;;;21.90;51.30;;;;;;482164;247;1295;-51
2022/08/07 03:12:39;;;;;;;;;;;21.80;51.30;;;;;;479128;247;1591;-51
2022/08/07 03:14:40;;;;;;;;;;;21.90;51.40;;;;;;471355;252;1236;-50
2022/08/07 03:16:41;;;;;;;;;;;21.90;51.40;;;;;;474369;247;1258;-51
2022/08/07 03:18:43;;;;;;;;;;;21.90;51.30;;;;;;482663;246;1171;-51
2022/08/07 03:20:44;;;;;;;;;;;21.90;51.40;;;;;;482608;247;1197;-50
2022/08/07 03:22:45;;;;;;;;;;;21.90;51.40;;;;;;482426;247;1290;-50
2022/08/07 03:24:47;;;;;;;;;;;21.80;51.40;;;;;;482164;247;1154;-50
2022/08/07 03:26:50;;;;;;;;;;;21.80;51.40;;;;;;482141;247;1302;-50
2022/08/07 03:28:50;;;;;;;;;;;21.90;51.50;;;;;;482134;247;2338;-51
2022/08/07 03:31:17;;;;;;;;;;;21.80;51.50;;;;;;482571;247;1168;-51
2022/08/07 03:32:53;;;;;;;;;;;21.80;51.50;;;;;;482232;246;1432;-51
2022/08/07 03:34:55;;;;;;;;;;;21.80;51.50;;;;;;482491;247;1261;-50
2022/08/07 03:36:56;;;;;;;;;;;21.80;51.50;;;;;;482106;247;1229;-50
2022/08/07 03:38:58;;;;;;;;;;;21.80;51.60;;;;;;482167;247;1177;-51
2022/08/07 03:41:00;;;;;;;;;;;21.80;51.70;;;;;;482007;247;1211;-51
2022/08/07 03:43:00;;;;;;;;;;;21.80;51.80;;;;;;482139;247;2133;-50
2022/08/07 03:45:02;;;;;;;;;;;21.80;51.80;;;;;;482238;247;1207;-50
2022/08/07 03:47:03;;;;;;;;;;;21.80;51.70;;;;;;482156;247;1357;-50
2022/08/07 03:49:04;;;;;;;;;;;21.80;51.80;;;;;;482148;247;2204;-50
2022/08/07 03:51:06;;;;;;;;;;;21.80;51.80;;;;;;482026;247;1604;-51
2022/08/07 03:53:07;;;;;;;;;;;21.80;51.80;;;;;;482182;247;1186;-50
2022/08/07 03:55:09;;;;;;;;;;;21.80;51.80;;;;;;482283;247;1231;-50
2022/08/07 03:57:10;;;;;;;;;;;21.80;51.80;;;;;;482144;246;1363;-51
2022/08/07 03:59:11;;;;;;;;;;;21.80;51.90;;;;;;482261;247;1175;-50
2022/08/07 04:01:13;;;;;;;;;;;21.80;51.80;;;;;;482169;247;1692;-50
2022/08/07 04:03:14;;;;;;;;;;;21.80;51.90;;;;;;482168;247;1068;-51
2022/08/07 04:05:15;;;;;;;;;;;21.80;51.90;;;;;;482350;247;1210;-50
2022/08/07 04:07:17;;;;;;;;;;;21.80;51.90;;;;;;481939;247;1239;-51
2022/08/07 04:09:18;;;;;;;;;;;21.80;51.90;;;;;;482138;247;2201;-50
2022/08/07 04:11:19;;;;;;;;;;;21.80;51.90;;;;;;482124;247;1051;-50
2022/08/07 04:13:21;;;;;;;;;;;21.80;52.00;;;;;;482237;247;1277;-50
2022/08/07 04:15:22;;;;;;;;;;;21.80;52.00;;;;;;482231;247;1087;-50
2022/08/07 04:17:23;;;;;;;;;;;21.80;52.10;;;;;;482187;247;1052;-50
2022/08/07 04:19:25;;;;;;;;;;;21.80;52.10;;;;;;482585;247;1062;-50
2022/08/07 04:21:26;;;;;;;;;;;21.80;52.10;;;;;;482074;247;1065;-51
2022/08/07 04:23:27;;;;;;;;;;;21.80;52.10;;;;;;482134;247;1049;-51
2022/08/07 04:25:29;;;;;;;;;;;21.80;52.10;;;;;;482133;246;988;-51
2022/08/07 04:27:30;;;;;;;;;;;21.80;52.10;;;;;;482120;247;1015;-50
2022/08/07 04:29:31;;;;;;;;;;;21.70;52.10;;;;;;473102;247;2193;-50
2022/08/07 04:31:33;;;;;;;;;;;21.70;52.10;;;;;;471195;251;1058;-49
2022/08/07 04:33:34;;;;;;;;;;;21.80;52.20;;;;;;471129;251;1074;-51
2022/08/07 04:35:36;;;;;;;;;;;21.70;52.10;;;;;;480687;247;1115;-50
2022/08/07 04:37:37;;;;;;;;;;;21.80;52.20;;;;;;482132;247;1036;-51
2022/08/07 04:39:38;;;;;;;;;;;21.80;52.20;;;;;;482363;247;1112;-50
2022/08/07 04:41:40;;;;;;;;;;;21.80;52.10;;;;;;482129;247;1348;-50
2022/08/07 04:43:42;;;;;;;;;;;21.70;52.10;;;;;;478959;246;1191;-51
2022/08/07 04:45:42;;;;;;;;;;;21.80;52.20;;;;;;471126;252;2356;-50
2022/08/07 04:47:44;;;;;;;;;;;21.80;52.30;;;;;;480585;247;1053;-50
2022/08/07 04:49:45;;;;;;;;;;;21.70;52.20;;;;;;481832;247;2220;-51
2022/08/07 04:51:47;;;;;;;;;;;21.80;52.30;;;;;;482366;247;1209;-51
2022/08/07 04:53:48;;;;;;;;;;;21.70;52.20;;;;;;482555;247;1035;-51
2022/08/07 04:55:49;;;;;;;;;;;21.80;52.40;;;;;;482561;247;1177;-50
2022/08/07 04:57:51;;;;;;;;;;;21.70;52.30;;;;;;482296;247;1066;-50
2022/08/07 04:59:52;;;;;;;;;;;21.70;52.30;;;;;;482280;247;1219;-50
2022/08/07 05:01:53;;;;;;;;;;;21.80;52.40;;;;;;482154;247;1122;-50
2022/08/07 05:03:56;;;;;;;;;;;21.80;52.30;;;;;;482215;247;1063;-50
2022/08/07 05:05:57;;;;;;;;;;;21.80;52.40;;;;;;482588;247;1237;-51
2022/08/07 05:07:58;;;;;;;;;;;21.80;52.40;;;;;;482572;247;1207;-50
2022/08/07 05:10:00;;;;;;;;;;;21.80;52.40;;;;;;482386;247;2200;-51
2022/08/07 05:12:01;;;;;;;;;;;21.70;52.40;;;;;;482354;247;1092;-50
2022/08/07 05:14:02;;;;;;;;;;;21.70;52.40;;;;;;482162;247;1156;-51
2022/08/07 05:16:04;;;;;;;;;;;21.70;52.40;;;;;;482509;247;1451;-50
2022/08/07 05:18:05;;;;;;;;;;;21.80;52.40;;;;;;482240;246;1177;-50
2022/08/07 05:20:06;;;;;;;;;;;21.70;52.40;;;;;;482103;247;1225;-50
2022/08/07 05:22:08;;;;;;;;;;;21.70;52.50;;;;;;482359;247;1274;-51
2022/08/07 05:24:09;;;;;;;;;;;21.70;52.50;;;;;;482216;247;1252;-51
2022/08/07 05:26:11;;;;;;;;;;;21.80;52.50;;;;;;482112;247;1335;-50
2022/08/07 05:28:12;;;;;;;;;;;21.70;52.40;;;;;;482627;247;2118;-51
2022/08/07 05:30:13;;;;;;;;;;;21.70;52.40;;;;;;473246;246;1317;-51
2022/08/07 05:32:17;;;;;;;;;;;21.70;52.50;;;;;;470972;252;1209;-51
2022/08/07 05:34:16;;;;;;;;;;;21.70;52.60;;;;;;480319;247;2305;-50
2022/08/07 05:36:17;;;;;;;;;;;21.70;52.50;;;;;;482424;246;1358;-51
2022/08/07 05:38:19;;;;;;;;;;;21.70;52.60;;;;;;482252;247;1329;-50
2022/08/07 05:40:20;;;;;;;;;;;21.70;52.60;;;;;;482430;247;1281;-50
2022/08/07 05:42:21;;;;;;;;;;;21.70;52.60;;;;;;482213;247;1287;-50
2022/08/07 05:44:23;;;;;;;;;;;21.70;52.50;;;;;;482440;247;1189;-51
2022/08/07 05:46:24;;;;;;;;;;;21.70;52.60;;;;;;482566;247;1194;-51
2022/08/07 05:48:25;;;;;;;;;;;21.70;52.60;;;;;;482119;247;2144;-51
2022/08/07 05:50:27;;;;;;;;;;;21.70;52.60;;;;;;482373;247;1288;-51
2022/08/07 05:52:28;;;;;;;;;;;21.70;52.70;;;;;;482060;247;1256;-50
2022/08/07 05:54:29;;;;;;;;;;;21.80;52.70;;;;;;482519;246;1252;-50
2022/08/07 05:56:30;;;;;;;;;;;21.70;52.70;;;;;;482328;247;1312;-50
2022/08/07 05:58:32;;;;;;;;;;;21.70;52.70;;;;;;482593;247;1157;-50
2022/08/07 06:00:33;;;;;;;;;;;21.70;52.70;;;;;;476970;247;1150;-50
2022/08/07 06:02:34;;;;;;;;;;;21.70;52.70;;;;;;482559;247;1183;-50
2022/08/07 06:04:36;;;;;;;;;;;21.70;52.70;;;;;;482163;247;1097;-50
2022/08/07 06:06:37;;;;;;;;;;;21.70;52.70;;;;;;482127;247;1038;-50
2022/08/07 06:08:38;;;;;;;;;;;21.70;52.70;;;;;;482563;247;2123;-50
2022/08/07 06:10:40;;;;;;;;;;;21.70;52.80;;;;;;482209;247;1046;-51
2022/08/07 06:12:41;;;;;;;;;;;21.70;52.80;;;;;;482174;247;1055;-50
2022/08/07 06:14:43;;;;;;;;;;;21.70;52.80;;;;;;482492;247;1163;-51
2022/08/07 06:16:44;;;;;;;;;;;21.70;52.70;;;;;;482609;247;1083;-50
2022/08/07 06:18:45;;;;;;;;;;;21.70;52.70;;;;;;482124;247;1061;-51
2022/08/07 06:20:47;;;;;;;;;;;21.70;52.70;;;;;;482063;247;1534;-50
2022/08/07 06:22:48;;;;;;;;;;;21.70;52.80;;;;;;482573;247;1171;-50
2022/08/07 06:24:49;;;;;;;;;;;21.70;52.80;;;;;;482390;246;1313;-50
2022/08/07 06:26:51;;;;;;;;;;;21.70;52.80;;;;;;482210;247;1206;-50
2022/08/07 06:28:52;;;;;;;;;;;21.70;52.80;;;;;;482174;247;2192;-51
2022/08/07 06:30:54;;;;;;;;;;;21.70;52.80;;;;;;482213;246;1222;-50
2022/08/07 06:32:55;;;;;;;;;;;21.70;52.80;;;;;;482245;247;1188;-50
2022/08/07 06:34:56;;;;;;;;;;;21.70;52.70;;;;;;482127;247;1239;-51
2022/08/07 06:36:58;;;;;;;;;;;21.70;52.80;;;;;;482299;247;1394;-50
2022/08/07 06:38:59;;;;;;;;;;;21.70;52.80;;;;;;482142;247;1296;-50
2022/08/07 06:41:00;;;;;;;;;;;21.70;52.80;;;;;;482615;247;1267;-49
2022/08/07 06:43:01;;;;;;;;;;;21.70;52.80;;;;;;482108;247;1296;-50
2022/08/07 06:45:03;;;;;;;;;;;21.70;52.90;;;;;;482080;247;1284;-50
2022/08/07 06:47:04;;;;;;;;;;;21.70;52.90;;;;;;482278;246;1233;-50
2022/08/07 06:49:05;;;;;;;;;;;21.70;52.90;;;;;;482537;247;2134;-50
2022/08/07 06:51:07;;;;;;;;;;;21.70;52.90;;;;;;482335;247;1215;-50
2022/08/07 06:53:08;;;;;;;;;;;21.70;52.90;;;;;;482165;247;1295;-51
2022/08/07 06:55:10;;;;;;;;;;;21.70;52.90;;;;;;482551;247;1268;-50
2022/08/07 06:57:12;;;;;;;;;;;21.60;52.90;;;;;;482200;247;1248;-50
2022/08/07 06:59:12;;;;;;;;;;;21.60;52.90;;;;;;482224;247;2215;-51
2022/08/07 07:01:15;;;;;;;;;;;21.70;52.90;;;;;;481969;247;1207;-51
2022/08/07 07:03:15;;;;;;;;;;;21.60;53.00;;;;;;482266;246;1426;-50
2022/08/07 07:05:16;;;;;;;;;;;21.70;53.00;;;;;;482135;247;1097;-51
2022/08/07 07:07:18;;;;;;;;;;;21.70;53.00;;;;;;482337;247;1067;-50
2022/08/07 07:09:19;;;;;;;;;;;21.70;52.90;;;;;;482652;246;2121;-50
2022/08/07 07:11:20;;;;;;;;;;;21.70;52.90;;;;;;482262;247;1021;-51
2022/08/07 07:13:22;;;;;;;;;;;21.70;52.90;;;;;;482208;247;1035;-50
2022/08/07 07:15:23;;;;;;;;;;;21.70;52.80;;;;;;479125;247;1329;-50
2022/08/07 07:17:25;;;;;;;;;;;21.70;52.80;;;;;;471555;252;1029;-51
2022/08/07 07:19:26;;;;;;;;;;;21.70;52.90;;;;;;471035;251;1060;-50
2022/08/07 07:21:27;;;;;;;;;;;21.70;52.80;;;;;;470952;251;1056;-50
2022/08/07 07:23:29;;;;;;;;;;;21.70;52.80;;;;;;471402;251;1060;-50
2022/08/07 07:25:30;;;;;;;;;;;21.80;52.80;;;;;;474861;247;1506;-51
2022/08/07 07:27:32;;;;;;;;;;;21.80;52.80;;;;;;482300;247;1695;-50
2022/08/07 07:29:33;;;;;;;;;;;21.80;52.80;;;;;;482633;247;2130;-50
2022/08/07 07:31:34;;;;;;;;;;;21.70;52.80;;;;;;473574;247;1389;-50
2022/08/07 07:33:36;;;;;;;;;;;21.80;52.90;;;;;;474320;247;1231;-51
2022/08/07 07:35:37;;;;;;;;;;;21.70;52.90;;;;;;482396;247;1358;-50
2022/08/07 07:37:38;;;;;;;;;;;21.80;52.90;;;;;;482150;247;1314;-51
2022/08/07 07:39:40;;;;;;;;;;;21.80;52.90;;;;;;482388;247;1233;-50
2022/08/07 07:41:41;;;;;;;;;;;21.70;52.90;;;;;;482338;247;1320;-50
2022/08/07 07:43:42;;;;;;;;;;;21.80;52.90;;;;;;482257;247;1205;-50
2022/08/07 07:45:44;;;;;;;;;;;21.80;52.90;;;;;;478990;247;1234;-51
2022/08/07 07:47:45;;;;;;;;;;;21.70;52.90;;;;;;480455;247;1247;-51
2022/08/07 07:49:46;;;;;;;;;;;21.70;52.90;;;;;;482523;247;2197;-50
2022/08/07 07:51:48;;;;;;;;;;;21.70;52.80;;;;;;482132;247;1325;-50
2022/08/07 07:53:49;;;;;;;;;;;21.80;52.90;;;;;;482436;247;1199;-50
2022/08/07 07:55:50;;;;;;;;;;;21.80;52.90;;;;;;482289;247;1236;-50
2022/08/07 07:57:52;;;;;;;;;;;21.70;52.90;;;;;;482125;247;1335;-50
2022/08/07 07:59:53;;;;;;;;;;;21.70;52.80;;;;;;482495;247;1266;-50
2022/08/07 08:01:54;;;;;;;;;;;21.70;52.90;;;;;;473469;247;1174;-50
2022/08/07 08:03:56;;;;;;;;;;;21.80;52.90;;;;;;471337;251;1294;-51
2022/08/07 08:05:57;;;;;;;;;;;21.80;52.90;;;;;;480128;247;1316;-51
2022/08/07 08:07:58;;;;;;;;;;;21.80;52.90;;;;;;482571;247;1213;-50
2022/08/07 08:10:00;;;;;;;;;;;21.70;52.90;;;;;;482227;247;2133;-51
2022/08/07 08:12:02;;;;;;;;;;;21.70;52.90;;;;;;482430;247;1232;-50
2022/08/07 08:14:03;;;;;;;;;;;21.80;53.00;;;;;;482188;246;2543;-51
2022/08/07 08:16:04;;;;;;;;;;;21.80;53.00;;;;;;482436;247;1338;-51
2022/08/07 08:18:06;;;;;;;;;;;21.70;52.90;;;;;;482471;247;1234;-50
2022/08/07 08:20:07;;;;;;;;;;;21.70;53.00;;;;;;482367;247;1343;-50
2022/08/07 08:29:08;;;;;;;;;;;21.70;53.00;;;;;;481966;247;1354;-51
2022/08/07 08:31:09;;;;;;;;;;;21.70;53.10;;;;;;482161;247;2192;-51
2022/08/07 08:33:14;;;;;;;;;;;21.70;53.20;;;;;;482076;247;1282;-50
2022/08/07 08:35:12;;;;;;;;;;;21.70;53.10;;;;;;482087;247;2262;-51
2022/08/07 08:37:13;;;;;;;;;;;21.70;53.20;;;;;;482372;247;1176;-50
2022/08/07 08:39:14;;;;;;;;;;;21.70;53.20;;;;;;482418;247;1210;-51
2022/08/07 08:41:16;;;;;;;;;;;21.60;53.30;;;;;;482601;246;1125;-50
2022/08/07 08:43:17;;;;;;;;;;;21.60;53.20;;;;;;482259;247;1089;-50
2022/08/07 08:45:18;;;;;;;;;;;21.60;53.20;;;;;;482224;247;1187;-50
2022/08/07 08:47:20;;;;;;;;;;;21.70;53.30;;;;;;482118;247;1185;-51
2022/08/07 08:49:21;;;;;;;;;;;21.60;53.20;;;;;;482301;247;2121;-50
2022/08/07 08:51:22;;;;;;;;;;;21.70;53.30;;;;;;482090;247;1181;-50
2022/08/07 08:53:25;;;;;;;;;;;21.70;53.20;;;;;;482456;247;1028;-51
2022/08/07 08:55:26;;;;;;;;;;;21.60;53.20;;;;;;482141;247;2000;-50
2022/08/07 08:57:27;;;;;;;;;;;21.60;53.20;;;;;;482181;247;1038;-50
2022/08/07 08:59:28;;;;;;;;;;;21.60;53.20;;;;;;482145;247;1154;-51
2022/08/07 09:01:30;;;;;;;;;;;21.70;53.30;;;;;;479154;247;1309;-50
2022/08/07 09:03:31;;;;;;;;;;;21.70;53.30;;;;;;471255;252;1063;-50
2022/08/07 09:05:32;;;;;;;;;;;21.70;53.20;;;;;;479679;247;1330;-50
2022/08/07 09:07:34;;;;;;;;;;;21.60;53.20;;;;;;482478;247;1478;-50
2022/08/07 09:09:35;;;;;;;;;;;21.70;53.30;;;;;;482209;247;2122;-51
2022/08/07 09:11:37;;;;;;;;;;;21.60;53.30;;;;;;482304;247;1721;-51
2022/08/07 09:13:37;;;;;;;;;;;21.70;53.30;;;;;;482237;247;2615;-50
2022/08/07 09:15:39;;;;;;;;;;;21.70;53.30;;;;;;482127;247;1254;-50
2022/08/07 09:17:40;;;;;;;;;;;21.70;53.30;;;;;;473643;247;1202;-51
2022/08/07 09:19:42;;;;;;;;;;;21.70;53.20;;;;;;471367;251;1304;-50
2022/08/07 09:21:43;;;;;;;;;;;21.70;53.20;;;;;;470921;251;1206;-50
2022/08/07 09:23:44;;;;;;;;;;;21.70;53.20;;;;;;479967;247;1331;-51
2022/08/07 09:25:46;;;;;;;;;;;21.70;53.20;;;;;;482576;247;1314;-51
2022/08/07 09:27:47;;;;;;;;;;;21.70;53.20;;;;;;482157;247;1233;-51
2022/08/07 09:29:48;;;;;;;;;;;21.70;53.20;;;;;;482220;247;2197;-50
2022/08/07 09:31:50;;;;;;;;;;;21.70;53.20;;;;;;482261;247;1241;-50
2022/08/07 09:33:51;;;;;;;;;;;21.70;53.20;;;;;;482114;247;1238;-50
2022/08/07 09:35:53;;;;;;;;;;;21.70;53.30;;;;;;482266;247;1362;-51
2022/08/07 09:37:54;;;;;;;;;;;21.70;53.20;;;;;;482103;247;1197;-49
2022/08/07 09:39:55;;;;;;;;;;;21.70;53.20;;;;;;482147;247;1284;-51
2022/08/07 09:41:57;;;;;;;;;;;21.70;53.20;;;;;;482553;247;1282;-51
2022/08/07 09:43:58;;;;;;;;;;;21.70;53.20;;;;;;482046;247;1239;-50
2022/08/07 09:45:59;;;;;;;;;;;21.70;53.30;;;;;;482557;247;1358;-50
2022/08/07 09:48:01;;;;;;;;;;;21.70;53.20;;;;;;482139;247;1216;-51
2022/08/07 09:50:02;;;;;;;;;;;21.70;53.20;;;;;;482534;247;2193;-50
2022/08/07 09:52:03;;;;;;;;;;;21.70;53.20;;;;;;482250;247;1187;-50
2022/08/07 09:54:05;;;;;;;;;;;21.70;53.30;;;;;;482248;247;1218;-50
2022/08/07 09:56:06;;;;;;;;;;;21.70;53.20;;;;;;482165;247;1107;-50
2022/08/07 09:58:08;;;;;;;;;;;21.70;53.30;;;;;;481947;247;1281;-50
2022/08/07 10:00:10;;;;;;;;;;;21.70;53.20;;;;;;482248;247;1541;-50
2022/08/07 10:02:10;;;;;;;;;;;21.70;53.20;;;;;;479289;247;2175;-51
2022/08/07 10:04:11;;;;;;;;;;;21.70;53.20;;;;;;471495;252;1085;-50
2022/08/07 10:06:13;;;;;;;;;;;21.70;53.10;;;;;;479684;247;1064;-50
2022/08/07 10:08:14;;;;;;;;;;;21.70;53.20;;;;;;482499;247;1056;-50
2022/08/07 10:10:15;;;;;;;;;;;21.70;53.20;;;;;;482610;247;2192;-51
2022/08/07 10:12:17;;;;;;;;;;;21.70;53.20;;;;;;482551;247;1031;-50
2022/08/07 10:14:18;;;;;;;;;;;21.70;53.20;;;;;;482379;247;1107;-50
2022/08/07 10:16:19;;;;;;;;;;;21.70;53.30;;;;;;482163;247;1094;-50
2022/08/07 10:18:21;;;;;;;;;;;21.70;53.30;;;;;;482141;247;1200;-50
2022/08/07 10:20:23;;;;;;;;;;;21.70;53.30;;;;;;482373;247;1070;-51
2022/08/07 10:22:24;;;;;;;;;;;21.70;53.30;;;;;;482608;246;1182;-51
2022/08/07 10:24:25;;;;;;;;;;;21.60;53.30;;;;;;482600;246;1104;-51
2022/08/07 10:26:27;;;;;;;;;;;21.70;53.30;;;;;;482088;247;1134;-51
2022/08/07 10:28:28;;;;;;;;;;;21.70;53.40;;;;;;482179;247;1196;-51
2022/08/07 10:30:30;;;;;;;;;;;21.70;53.40;;;;;;482591;246;2128;-50
2022/08/07 10:32:31;;;;;;;;;;;21.70;53.30;;;;;;479662;247;1206;-50
2022/08/07 10:34:32;;;;;;;;;;;21.70;53.40;;;;;;479682;247;1192;-51
2022/08/07 10:36:33;;;;;;;;;;;21.70;53.50;;;;;;482238;247;1235;-50
2022/08/07 10:38:35;;;;;;;;;;;21.60;53.40;;;;;;482176;247;1245;-51
2022/08/07 10:40:37;;;;;;;;;;;21.60;53.50;;;;;;482587;247;1206;-51
2022/08/07 10:42:37;;;;;;;;;;;21.60;53.50;;;;;;481503;247;2291;-50
2022/08/07 10:44:39;;;;;;;;;;;21.60;53.50;;;;;;482070;247;1013;-50
2022/08/07 10:46:40;;;;;;;;;;;21.60;53.50;;;;;;482341;247;1094;-51
2022/08/07 10:48:43;;;;;;;;;;;21.70;53.50;;;;;;476986;247;1194;-51
2022/08/07 10:50:43;;;;;;;;;;;21.60;53.50;;;;;;482435;247;2298;-51
2022/08/07 10:52:44;;;;;;;;;;;21.60;53.40;;;;;;482575;247;1078;-51
2022/08/07 10:54:46;;;;;;;;;;;21.60;53.40;;;;;;482559;247;1052;-51
2022/08/07 10:56:47;;;;;;;;;;;21.60;53.50;;;;;;482240;247;1113;-50
2022/08/07 10:58:48;;;;;;;;;;;21.60;53.60;;;;;;482311;247;1044;-51
2022/08/07 11:00:50;;;;;;;;;;;21.60;53.50;;;;;;482115;247;1163;-51
2022/08/07 11:02:52;;;;;;;;;;;21.60;53.60;;;;;;482206;247;1182;-50
2022/08/07 11:04:53;;;;;;;;;;;21.60;53.60;;;;;;482195;247;1162;-50
2022/08/07 11:06:54;;;;;;;;;;;21.60;53.60;;;;;;482065;247;1082;-51
2022/08/07 11:08:56;;;;;;;;;;;21.60;53.60;;;;;;482519;247;1067;-50
2022/08/07 11:10:58;;;;;;;;;;;21.60;53.60;;;;;;482247;247;2130;-50
2022/08/07 11:12:59;;;;;;;;;;;21.60;53.60;;;;;;482121;247;2343;-50
2022/08/07 11:15:00;;;;;;;;;;;21.60;53.60;;;;;;482278;247;1065;-50
2022/08/07 11:17:01;;;;;;;;;;;21.60;53.60;;;;;;482510;247;1052;-51
2022/08/07 11:19:03;;;;;;;;;;;21.60;53.50;;;;;;482264;247;1169;-50
2022/08/07 11:21:04;;;;;;;;;;;21.70;53.50;;;;;;482140;247;1091;-51
2022/08/07 11:23:05;;;;;;;;;;;21.60;53.40;;;;;;482223;247;1223;-51
2022/08/07 11:25:07;;;;;;;;;;;21.60;53.40;;;;;;482087;247;1283;-50
2022/08/07 11:27:09;;;;;;;;;;;21.60;53.50;;;;;;482043;247;1414;-50
2022/08/07 11:29:10;;;;;;;;;;;21.70;53.50;;;;;;482253;247;1065;-50
2022/08/07 11:31:11;;;;;;;;;;;21.60;53.40;;;;;;481742;247;2204;-50
2022/08/07 11:33:12;;;;;;;;;;;21.70;53.50;;;;;;482139;247;1240;-50
2022/08/07 11:35:14;;;;;;;;;;;21.60;53.50;;;;;;481546;247;1644;-50
2022/08/07 11:37:15;;;;;;;;;;;21.70;53.50;;;;;;482137;246;1280;-51
2022/08/07 11:39:16;;;;;;;;;;;21.70;53.50;;;;;;482177;246;1273;-51
2022/08/07 11:41:18;;;;;;;;;;;21.70;53.40;;;;;;482185;247;1178;-51
2022/08/07 11:43:19;;;;;;;;;;;21.70;53.50;;;;;;482588;247;1062;-51
2022/08/07 11:45:21;;;;;;;;;;;21.70;53.50;;;;;;482636;247;1060;-50
2022/08/07 11:47:22;;;;;;;;;;;21.70;53.40;;;;;;482202;247;1073;-50
2022/08/07 11:49:23;;;;;;;;;;;21.60;53.40;;;;;;482320;247;1512;-50
2022/08/07 11:51:25;;;;;;;;;;;21.60;53.50;;;;;;482263;247;2129;-51
2022/08/07 11:53:26;;;;;;;;;;;21.70;53.50;;;;;;482618;247;1028;-50
2022/08/07 11:55:27;;;;;;;;;;;21.70;53.50;;;;;;482523;246;1062;-50
2022/08/07 11:57:29;;;;;;;;;;;21.70;53.50;;;;;;482367;246;1057;-50
2022/08/07 11:59:30;;;;;;;;;;;21.70;53.50;;;;;;482156;247;1036;-50
2022/08/07 12:01:31;;;;;;;;;;;21.70;53.40;;;;;;482188;247;2189;-50
2022/08/07 12:03:33;;;;;;;;;;;21.70;53.40;;;;;;479328;247;1329;-50